createdAt,value
2018-08-17T00:00:50.814Z,86.78
2018-08-17T00:01:50.814Z,86.40
2018-08-17T00:02:50.816Z,86.49
2018-08-17T00:03:50.816Z,86.40
2018-08-17T00:04:50.815Z,86.30
2018-08-17T00:05:50.814Z,86.30
2018-08-17T00:06:50.808Z,86.21
2018-08-17T00:07:50.807Z,86.30
2018-08-17T00:08:50.812Z,85.82
2018-08-17T00:09:50.813Z,86.01
2018-08-17T00:10:50.805Z,85.63
2018-08-17T00:11:50.804Z,85.72
2018-08-17T00:12:50.802Z,86.11
2018-08-17T00:13:50.802Z,86.11
2018-08-17T00:14:50.805Z,85.53
2018-08-17T00:15:50.804Z,85.53
2018-08-17T00:16:50.803Z,86.01
2018-08-17T00:17:50.804Z,85.14
2018-08-17T00:18:50.800Z,85.86
2018-08-17T00:19:50.797Z,85.63
2018-08-17T00:20:50.795Z,85.63
2018-08-17T00:21:50.794Z,85.63
2018-08-17T00:22:50.799Z,85.53
2018-08-17T00:23:50.800Z,85.43
2018-08-17T00:24:50.797Z,85.24
2018-08-17T00:25:50.794Z,84.86
2018-08-17T00:26:50.795Z,84.95
2018-08-17T00:27:50.794Z,85.09
2018-08-17T00:28:50.793Z,85.19
2018-08-17T00:29:50.790Z,84.99
2018-08-17T00:30:50.786Z,84.61
2018-08-17T00:31:50.784Z,85.19
2018-08-17T00:32:50.784Z,84.70
2018-08-17T00:33:50.788Z,84.52
2018-08-17T00:34:50.787Z,85.28
2018-08-17T00:35:50.786Z,85.38
2018-08-17T00:36:50.783Z,85.28
2018-08-17T00:37:50.782Z,84.99
2018-08-17T00:38:50.777Z,84.61
2018-08-17T00:39:50.776Z,84.70
2018-08-17T00:40:50.783Z,84.90
2018-08-17T00:41:50.779Z,85.24
2018-08-17T00:42:50.773Z,85.63
2018-08-17T00:43:50.771Z,85.09
2018-08-17T00:44:50.771Z,85.28
2018-08-17T00:45:50.778Z,84.99
2018-08-17T00:46:50.774Z,84.86
2018-08-17T00:47:50.773Z,84.99
2018-08-17T00:48:50.776Z,85.24
2018-08-17T00:49:50.771Z,85.09
2018-08-17T00:50:50.766Z,84.90
2018-08-17T00:51:50.765Z,84.80
2018-08-17T00:52:50.763Z,84.90
2018-08-17T00:53:50.763Z,84.99
2018-08-17T00:54:50.765Z,84.99
2018-08-17T00:55:50.767Z,84.86
2018-08-17T00:56:50.761Z,85.19
2018-08-17T00:57:50.758Z,84.99
2018-08-17T00:58:50.762Z,84.56
2018-08-17T00:59:50.761Z,84.42
2018-08-17T01:00:50.760Z,85.09
2018-08-17T01:01:50.760Z,84.90
2018-08-17T01:02:50.754Z,84.42
2018-08-17T01:03:50.752Z,84.03
2018-08-17T01:04:50.751Z,83.94
2018-08-17T01:05:50.752Z,84.22
2018-08-17T01:06:50.755Z,84.52
2018-08-17T01:07:50.752Z,83.64
2018-08-17T01:08:50.751Z,84.61
2018-08-17T01:09:50.752Z,84.52
2018-08-17T01:10:50.745Z,84.90
2018-08-17T01:11:50.744Z,85.09
2018-08-17T01:12:50.749Z,84.70
2018-08-17T01:13:50.746Z,85.86
2018-08-17T01:14:50.743Z,85.14
2018-08-17T01:15:50.740Z,85.67
2018-08-17T01:16:50.743Z,85.82
2018-08-17T01:17:50.738Z,85.91
2018-08-17T01:18:50.742Z,86.40
2018-08-17T01:19:50.741Z,86.78
2018-08-17T01:20:50.741Z,87.07
2018-08-17T01:21:50.744Z,86.69
2018-08-17T01:22:50.734Z,86.65
2018-08-17T01:23:50.731Z,87.32
2018-08-17T01:24:50.734Z,87.41
2018-08-17T01:25:50.730Z,87.80
2018-08-17T01:26:50.734Z,87.90
2018-08-17T01:27:50.732Z,88.09
2018-08-17T01:28:50.726Z,87.80
2018-08-17T01:29:50.726Z,87.60
2018-08-17T01:30:50.730Z,87.80
2018-08-17T01:31:50.728Z,88.38
2018-08-17T01:32:50.728Z,88.28
2018-08-17T01:33:50.728Z,88.57
2018-08-17T01:34:50.721Z,88.18
2018-08-17T01:35:50.720Z,88.76
2018-08-17T01:36:50.719Z,88.76
2018-08-17T01:37:50.718Z,88.47
2018-08-17T01:38:50.725Z,88.57
2018-08-17T01:39:50.719Z,88.57
2018-08-17T01:40:50.719Z,88.47
2018-08-17T01:41:50.718Z,88.57
2018-08-17T01:42:50.713Z,88.38
2018-08-17T01:43:50.711Z,88.76
2018-08-17T01:44:50.718Z,89.15
2018-08-17T01:45:50.713Z,89.05
2018-08-17T01:46:50.710Z,88.95
2018-08-17T01:47:50.707Z,89.15
2018-08-17T01:48:50.706Z,89.63
2018-08-17T01:49:50.704Z,89.43
2018-08-17T01:50:50.712Z,89.72
2018-08-17T01:51:50.707Z,89.87
2018-08-17T01:52:50.706Z,89.68
2018-08-17T01:53:50.705Z,89.82
2018-08-17T01:54:50.698Z,89.87
2018-08-17T01:55:50.697Z,89.68
2018-08-17T01:56:50.696Z,90.01
2018-08-17T01:57:50.695Z,90.06
2018-08-17T01:58:50.698Z,90.35
2018-08-17T01:59:50.696Z,90.20
2018-08-17T02:00:50.691Z,90.50
2018-08-17T02:01:50.689Z,90.40
2018-08-17T02:02:50.692Z,90.73
2018-08-17T02:03:50.691Z,90.73
2018-08-17T02:04:50.691Z,91.31
2018-08-17T02:05:50.689Z,91.36
2018-08-17T02:06:50.684Z,91.80
2018-08-17T02:07:50.682Z,91.70
2018-08-17T02:08:50.681Z,91.22
2018-08-17T02:09:50.680Z,92.08
2018-08-17T02:10:50.683Z,91.99
2018-08-17T02:11:50.681Z,92.47
2018-08-17T02:12:50.679Z,91.99
2018-08-17T02:13:50.679Z,92.47
2018-08-17T02:14:50.672Z,92.76
2018-08-17T02:15:50.669Z,92.57
2018-08-17T02:16:50.676Z,92.66
2018-08-17T02:17:50.672Z,93.05
2018-08-17T02:18:50.666Z,93.15
2018-08-17T02:19:50.664Z,93.15
2018-08-17T02:20:50.666Z,93.05
2018-08-17T02:21:50.661Z,92.95
2018-08-17T02:22:50.665Z,92.66
2018-08-17T02:23:50.664Z,93.33
2018-08-17T02:24:50.662Z,93.24
2018-08-17T02:25:50.661Z,93.05
2018-08-17T02:26:50.658Z,93.29
2018-08-17T02:27:50.652Z,93.72
2018-08-17T02:28:50.654Z,93.58
2018-08-17T02:29:50.649Z,93.38
2018-08-17T02:30:50.654Z,93.48
2018-08-17T02:31:50.651Z,94.15
2018-08-17T02:32:50.644Z,94.35
2018-08-17T02:33:50.644Z,93.96
2018-08-17T02:34:50.649Z,93.77
2018-08-17T02:35:50.643Z,93.96
2018-08-17T02:36:50.643Z,93.77
2018-08-17T02:37:50.641Z,93.87
2018-08-17T02:38:50.635Z,93.87
2018-08-17T02:39:50.634Z,93.96
2018-08-17T02:40:50.635Z,93.19
2018-08-17T02:41:50.630Z,93.48
2018-08-17T02:42:50.633Z,93.38
2018-08-17T02:43:50.632Z,93.29
2018-08-17T02:44:50.630Z,93.29
2018-08-17T02:45:50.629Z,93.68
2018-08-17T02:46:50.623Z,93.29
2018-08-17T02:47:50.627Z,93.00
2018-08-17T02:48:50.622Z,93.10
2018-08-17T02:49:50.621Z,92.91
2018-08-17T02:50:50.615Z,93.10
2018-08-17T02:51:50.618Z,93.10
2018-08-17T02:52:50.613Z,92.95
2018-08-17T02:53:50.609Z,93.05
2018-08-17T02:54:50.613Z,92.76
2018-08-17T02:55:50.608Z,93.15
2018-08-17T02:56:50.611Z,93.05
2018-08-17T02:57:50.606Z,93.24
2018-08-17T02:58:50.603Z,93.29
2018-08-17T02:59:50.598Z,93.33
2018-08-17T03:00:50.605Z,93.33
2018-08-17T03:01:50.597Z,92.95
2018-08-17T03:02:50.601Z,93.15
2018-08-17T03:03:50.597Z,93.24
2018-08-17T03:04:50.590Z,93.24
2018-08-17T03:05:50.590Z,93.15
2018-08-17T03:06:50.593Z,92.95
2018-08-17T03:07:50.590Z,92.95
2018-08-17T03:08:50.589Z,93.05
2018-08-17T03:09:50.588Z,93.33
2018-08-17T03:10:50.582Z,92.85
2018-08-17T03:11:50.579Z,92.76
2018-08-17T03:12:50.576Z,92.76
2018-08-17T03:13:50.579Z,92.47
2018-08-17T03:14:50.578Z,92.47
2018-08-17T03:15:50.577Z,92.28
2018-08-17T03:16:50.576Z,92.47
2018-08-17T03:17:50.574Z,92.18
2018-08-17T03:18:50.567Z,92.47
2018-08-17T03:19:50.566Z,91.99
2018-08-17T03:20:50.570Z,91.89
2018-08-17T03:21:50.568Z,91.22
2018-08-17T03:22:50.562Z,91.41
2018-08-17T03:23:50.559Z,91.51
2018-08-17T03:24:50.557Z,91.70
2018-08-17T03:25:50.556Z,91.51
2018-08-17T03:26:50.559Z,91.31
2018-08-17T03:27:50.557Z,91.22
2018-08-17T03:28:50.557Z,91.51
2018-08-17T03:29:50.554Z,91.31
2018-08-17T03:30:50.548Z,91.41
2018-08-17T03:31:50.547Z,91.70
2018-08-17T03:32:50.547Z,91.51
2018-08-17T03:33:50.547Z,91.41
2018-08-17T03:34:50.546Z,91.31
2018-08-17T03:35:50.544Z,92.28
2018-08-17T03:36:50.538Z,91.99
2018-08-17T03:37:50.538Z,91.60
2018-08-17T03:38:50.541Z,91.80
2018-08-17T03:39:50.543Z,91.99
2018-08-17T03:40:50.537Z,92.57
2018-08-17T03:41:50.536Z,92.76
2018-08-17T03:42:50.529Z,92.57
2018-08-17T03:43:50.527Z,93.24
2018-08-17T03:44:50.526Z,93.15
2018-08-17T03:45:50.527Z,93.24
2018-08-17T03:46:50.528Z,93.15
2018-08-17T03:47:50.526Z,93.10
2018-08-17T03:48:50.523Z,93.10
2018-08-17T03:49:50.523Z,93.48
2018-08-17T03:50:50.516Z,92.91
2018-08-17T03:51:50.514Z,92.61
2018-08-17T03:52:50.518Z,92.52
2018-08-17T03:53:50.515Z,92.43
2018-08-17T03:54:50.510Z,92.43
2018-08-17T03:55:50.507Z,92.33
2018-08-17T03:56:50.506Z,92.52
2018-08-17T03:57:50.504Z,92.91
2018-08-17T03:58:50.509Z,92.71
2018-08-17T03:59:50.506Z,92.43
2018-08-17T04:00:50.503Z,93.19
2018-08-17T04:01:50.502Z,92.33
2018-08-17T04:02:50.499Z,92.43
2018-08-17T04:03:50.493Z,92.33
2018-08-17T04:04:50.495Z,92.71
2018-08-17T04:05:50.491Z,92.91
2018-08-17T04:06:50.493Z,92.33
2018-08-17T04:07:50.490Z,92.61
2018-08-17T04:08:50.484Z,92.91
2018-08-17T04:09:50.482Z,92.43
2018-08-17T04:10:50.485Z,93.29
2018-08-17T04:11:50.482Z,93.00
2018-08-17T04:12:50.482Z,93.29
2018-08-17T04:13:50.479Z,93.10
2018-08-17T04:14:50.474Z,92.71
2018-08-17T04:15:50.471Z,93.10
2018-08-17T04:16:50.470Z,93.29
2018-08-17T04:17:50.467Z,92.91
2018-08-17T04:18:50.472Z,92.91
2018-08-17T04:19:50.467Z,93.29
2018-08-17T04:20:50.465Z,93.48
2018-08-17T04:21:50.469Z,93.10
2018-08-17T04:22:50.459Z,93.10
2018-08-17T04:23:50.497Z,92.52
2018-08-17T04:24:50.460Z,92.71
2018-08-17T04:25:50.456Z,92.33
2018-08-17T04:26:50.452Z,92.43
2018-08-17T04:27:50.448Z,92.52
2018-08-17T04:28:50.448Z,92.13
2018-08-17T04:29:50.449Z,92.33
2018-08-17T04:30:50.449Z,92.43
2018-08-17T04:31:50.448Z,91.85
2018-08-17T04:32:50.445Z,91.99
2018-08-17T04:33:50.443Z,92.38
2018-08-17T04:34:50.437Z,91.89
2018-08-17T04:35:50.435Z,91.99
2018-08-17T04:36:50.433Z,91.89
2018-08-17T04:37:50.432Z,92.38
2018-08-17T04:38:50.438Z,92.57
2018-08-17T04:39:50.434Z,92.28
2018-08-17T04:40:50.426Z,91.89
2018-08-17T04:41:50.425Z,91.70
2018-08-17T04:42:50.429Z,91.89
2018-08-17T04:43:50.434Z,92.28
2018-08-17T04:44:50.426Z,92.28
2018-08-17T04:45:50.426Z,91.41
2018-08-17T04:46:50.418Z,91.70
2018-08-17T04:47:50.416Z,91.89
2018-08-17T04:48:50.415Z,91.51
2018-08-17T04:49:50.415Z,91.60
2018-08-17T04:50:50.419Z,91.13
2018-08-17T04:51:50.415Z,91.70
2018-08-17T04:52:50.415Z,91.99
2018-08-17T04:53:50.414Z,91.41
2018-08-17T04:54:50.408Z,91.89
2018-08-17T04:55:50.405Z,91.13
2018-08-17T04:56:50.409Z,90.93
2018-08-17T04:57:50.409Z,90.73
2018-08-17T04:58:50.402Z,91.03
2018-08-17T04:59:50.400Z,90.83
2018-08-17T05:00:50.399Z,91.31
2018-08-17T05:01:50.398Z,91.70
2018-08-17T05:02:50.401Z,92.57
2018-08-17T05:03:50.399Z,92.76
2018-08-17T05:04:50.399Z,93.15
2018-08-17T05:05:50.397Z,93.24
2018-08-17T05:06:50.399Z,93.33
2018-08-17T05:07:50.389Z,94.20
2018-08-17T05:08:50.393Z,94.30
2018-08-17T05:09:50.387Z,94.30
2018-08-17T05:10:50.392Z,93.91
2018-08-17T05:11:50.389Z,95.55
2018-08-17T05:12:50.385Z,96.47
2018-08-17T05:13:50.405Z,97.52
2018-08-17T05:14:50.384Z,98.19
2018-08-17T05:15:50.383Z,99.26
2018-08-17T05:16:50.383Z,99.99
2018-08-17T05:17:50.378Z,99.99
2018-08-17T05:18:50.377Z,99.99
2018-08-17T05:19:50.370Z,99.99
2018-08-17T05:20:50.369Z,99.99
2018-08-17T05:21:50.373Z,99.99
2018-08-17T05:22:50.370Z,99.99
2018-08-17T05:23:50.368Z,99.99
2018-08-17T05:24:50.367Z,99.99
2018-08-17T05:25:50.364Z,99.99
2018-08-17T05:26:50.359Z,99.99
2018-08-17T05:27:50.356Z,99.99
2018-08-17T05:28:50.358Z,99.99
2018-08-17T05:29:50.359Z,99.99
2018-08-17T05:30:50.349Z,99.99
2018-08-17T05:31:50.345Z,99.99
2018-08-17T05:32:50.343Z,99.99
2018-08-17T05:33:50.341Z,99.99
2018-08-17T05:34:50.344Z,99.99
2018-08-17T05:35:50.361Z,99.99
2018-08-17T05:36:50.338Z,99.99
2018-08-17T05:37:50.335Z,99.99
2018-08-17T05:38:50.330Z,99.99
2018-08-17T05:39:50.326Z,99.99
2018-08-17T05:40:50.324Z,99.99
2018-08-17T05:41:50.321Z,99.99
2018-08-17T05:42:50.325Z,99.99
2018-08-17T05:43:50.322Z,99.99
2018-08-17T05:44:50.315Z,99.99
2018-08-17T05:45:50.316Z,99.99
2018-08-17T05:46:50.313Z,99.99
2018-08-17T05:47:50.311Z,99.99
2018-08-17T05:48:50.307Z,99.99
2018-08-17T05:49:50.305Z,99.99
2018-08-17T05:50:50.301Z,99.99
2018-08-17T05:51:50.296Z,99.99
2018-08-17T05:52:50.297Z,99.99
2018-08-17T05:53:50.295Z,99.99
2018-08-17T05:54:50.290Z,99.99
2018-08-17T05:55:50.284Z,99.99
2018-08-17T05:56:50.281Z,99.99
2018-08-17T05:57:50.279Z,99.99
2018-08-17T05:58:50.281Z,99.99
2018-08-17T05:59:50.277Z,99.99
2018-08-17T06:00:50.273Z,99.99
2018-08-17T06:01:50.268Z,99.99
2018-08-17T06:02:50.303Z,99.99
2018-08-17T06:03:50.267Z,99.99
2018-08-17T06:04:50.265Z,99.99
2018-08-17T06:05:50.262Z,99.99
2018-08-17T06:06:50.255Z,99.99
2018-08-17T06:07:50.251Z,99.99
2018-08-17T06:08:50.249Z,99.99
2018-08-17T06:09:50.247Z,99.99
2018-08-17T06:10:50.302Z,99.99
2018-08-17T06:11:50.248Z,99.99
2018-08-17T06:12:50.242Z,99.99
2018-08-17T06:13:50.241Z,99.99
2018-08-17T06:14:50.232Z,99.99
2018-08-17T06:15:50.229Z,99.99
2018-08-17T06:16:50.231Z,99.99
2018-08-17T06:17:50.228Z,99.99
2018-08-17T06:18:50.221Z,99.99
2018-08-17T06:19:50.219Z,99.99
2018-08-17T06:20:50.218Z,99.99
2018-08-17T06:21:50.213Z,99.99
2018-08-17T06:22:50.215Z,99.99
2018-08-17T06:23:50.211Z,99.99
2018-08-17T06:24:50.207Z,99.99
2018-08-17T06:25:50.220Z,99.99
2018-08-17T06:26:50.198Z,99.99
2018-08-17T06:27:50.193Z,99.99
2018-08-17T06:28:50.196Z,99.99
2018-08-17T06:29:50.189Z,99.99
2018-08-17T06:30:50.189Z,99.99
2018-08-17T06:31:50.263Z,99.99
2018-08-17T06:32:50.178Z,99.99
2018-08-17T06:33:50.175Z,99.99
2018-08-17T06:34:50.180Z,99.99
2018-08-17T06:35:50.172Z,99.99
2018-08-17T06:36:50.172Z,99.99
2018-08-17T06:37:50.167Z,99.99
2018-08-17T06:38:50.161Z,99.99
2018-08-17T06:39:50.155Z,99.99
2018-08-17T06:40:50.153Z,99.99
2018-08-17T06:41:50.149Z,99.99
2018-08-17T06:42:50.152Z,99.99
2018-08-17T06:43:50.147Z,99.99
2018-08-17T06:44:50.144Z,99.99
2018-08-17T06:45:50.141Z,99.99
2018-08-17T06:46:50.133Z,99.99
2018-08-17T06:47:50.128Z,99.99
2018-08-17T06:48:50.132Z,99.99
2018-08-17T06:49:50.127Z,99.99
2018-08-17T06:50:50.356Z,99.99
2018-08-17T06:51:50.115Z,99.99
2018-08-17T06:52:50.111Z,99.99
2018-08-17T06:53:50.110Z,99.99
2018-08-17T06:54:50.112Z,99.99
2018-08-17T06:55:50.106Z,99.99
2018-08-17T06:56:50.102Z,99.99
2018-08-17T06:57:50.099Z,99.99
2018-08-17T06:58:50.096Z,99.99
2018-08-17T06:59:50.087Z,99.99
2018-08-17T07:00:50.084Z,99.99
2018-08-17T07:01:50.081Z,99.99
2018-08-17T07:02:50.083Z,99.99
2018-08-17T07:03:50.090Z,99.99
2018-08-17T07:04:50.072Z,99.99
2018-08-17T07:05:50.070Z,99.99
2018-08-17T07:06:50.070Z,99.99
2018-08-17T07:07:50.065Z,99.99
2018-08-17T07:08:50.169Z,99.99
2018-08-17T07:09:50.060Z,99.99
2018-08-17T07:10:50.051Z,99.99
2018-08-17T07:11:50.047Z,99.99
2018-08-17T07:12:50.043Z,99.99
2018-08-17T07:13:50.040Z,99.99
2018-08-17T07:14:50.041Z,99.99
2018-08-17T07:15:50.036Z,99.99
2018-08-17T07:16:50.036Z,99.99
2018-08-17T07:17:50.032Z,99.99
2018-08-17T07:18:50.027Z,99.99
2018-08-17T07:19:50.020Z,99.99
2018-08-17T07:20:50.022Z,99.99
2018-08-17T07:21:50.018Z,99.99
2018-08-17T07:22:50.011Z,99.99
2018-08-17T07:23:50.009Z,99.99
2018-08-17T07:24:50.005Z,99.99
2018-08-17T07:25:50.001Z,99.99
2018-08-17T07:26:50.003Z,99.99
2018-08-17T07:27:50.110Z,99.99
2018-08-17T07:28:49.996Z,99.99
2018-08-17T07:29:49.994Z,99.99
2018-08-17T07:30:49.985Z,99.99
2018-08-17T07:31:49.982Z,99.99
2018-08-17T07:32:49.979Z,99.99
2018-08-17T07:33:49.977Z,99.99
2018-08-17T07:34:49.979Z,99.99
2018-08-17T07:35:50.045Z,99.99
2018-08-17T07:36:49.969Z,99.99
2018-08-17T07:37:49.965Z,99.99
2018-08-17T07:38:49.966Z,99.99
2018-08-17T07:39:49.964Z,99.99
2018-08-17T07:40:49.961Z,99.99
2018-08-17T07:41:49.958Z,99.99
2018-08-17T07:42:49.951Z,99.99
2018-08-17T07:43:49.947Z,99.99
2018-08-17T07:44:49.945Z,99.99
2018-08-17T07:45:49.942Z,99.99
2018-08-17T07:46:49.945Z,99.99
2018-08-17T07:47:50.008Z,99.99
2018-08-17T07:48:49.940Z,99.99
2018-08-17T07:49:49.937Z,99.99
2018-08-17T07:50:49.930Z,99.99
2018-08-17T07:51:49.927Z,99.99
2018-08-17T07:52:49.929Z,99.99
2018-08-17T07:53:49.928Z,99.99
2018-08-17T07:54:49.919Z,99.99
2018-08-17T07:55:49.917Z,99.99
2018-08-17T07:56:49.914Z,99.99
2018-08-17T07:57:49.914Z,99.99
2018-08-17T07:58:49.915Z,99.99
2018-08-17T07:59:49.914Z,99.99
2018-08-17T08:00:49.911Z,99.99
2018-08-17T08:01:49.909Z,99.99
2018-08-17T08:02:49.902Z,99.99
2018-08-17T08:03:49.900Z,99.99
2018-08-17T08:04:49.898Z,99.99
2018-08-17T08:05:49.901Z,99.99
2018-08-17T08:06:49.902Z,99.99
2018-08-17T08:07:49.899Z,99.99
2018-08-17T08:08:49.893Z,99.99
2018-08-17T08:09:49.893Z,99.99
2018-08-17T08:10:49.897Z,99.99
2018-08-17T08:11:49.895Z,99.99
2018-08-17T08:12:49.895Z,99.99
2018-08-17T08:13:49.995Z,99.99
2018-08-17T08:14:49.889Z,99.99
2018-08-17T08:15:49.889Z,99.99
2018-08-17T08:16:49.888Z,99.99
2018-08-17T08:17:49.886Z,99.99
2018-08-17T08:18:49.893Z,99.99
2018-08-17T08:19:49.893Z,99.99
2018-08-17T08:20:49.888Z,99.99
2018-08-17T08:21:49.888Z,99.99
2018-08-17T08:22:49.883Z,99.99
2018-08-17T08:23:49.883Z,99.99
2018-08-17T08:24:49.886Z,99.99
2018-08-17T08:25:49.885Z,99.99
2018-08-17T08:26:49.881Z,99.99
2018-08-17T08:27:49.880Z,99.99
2018-08-17T08:28:49.881Z,99.99
2018-08-17T08:29:49.880Z,99.99
2018-08-17T08:30:49.885Z,99.99
2018-08-17T08:31:49.884Z,99.99
2018-08-17T08:32:49.884Z,99.99
2018-08-17T08:33:49.883Z,99.99
2018-08-17T08:34:49.877Z,99.99
2018-08-17T08:35:49.878Z,99.99
2018-08-17T08:36:49.876Z,99.99
2018-08-17T08:37:49.876Z,99.99
2018-08-17T08:38:49.879Z,99.99
2018-08-17T08:39:49.902Z,99.99
2018-08-17T08:40:49.876Z,99.99
2018-08-17T08:41:49.874Z,99.99
2018-08-17T08:42:49.878Z,99.99
2018-08-17T08:43:49.876Z,99.99
2018-08-17T08:44:49.875Z,99.99
2018-08-17T08:45:49.897Z,99.99
2018-08-17T08:46:49.870Z,99.99
2018-08-17T08:47:49.868Z,99.99
2018-08-17T08:48:49.869Z,99.99
2018-08-17T08:49:49.868Z,99.99
2018-08-17T08:50:49.872Z,99.99
2018-08-17T08:51:49.871Z,99.99
2018-08-17T08:52:49.868Z,99.99
2018-08-17T08:53:49.867Z,99.99
2018-08-17T08:54:49.864Z,99.99
2018-08-17T08:55:49.864Z,99.99
2018-08-17T08:56:49.864Z,99.99
2018-08-17T08:57:49.864Z,99.99
2018-08-17T08:58:49.858Z,99.99
2018-08-17T08:59:49.860Z,99.99
2018-08-17T09:00:49.860Z,99.99
2018-08-17T09:01:50.041Z,99.99
2018-08-17T09:02:49.858Z,99.99
2018-08-17T09:03:49.859Z,99.99
2018-08-17T09:04:49.854Z,99.99
2018-08-17T09:05:49.853Z,99.99
2018-08-17T09:06:49.848Z,99.99
2018-08-17T09:07:49.845Z,99.99
2018-08-17T09:08:49.849Z,99.99
2018-08-17T09:09:49.843Z,99.99
2018-08-17T09:10:49.848Z,99.99
2018-08-17T09:11:49.845Z,99.99
2018-08-17T09:12:49.838Z,99.99
2018-08-17T09:13:49.945Z,99.99
2018-08-17T09:14:49.840Z,99.99
2018-08-17T09:15:49.839Z,99.99
2018-08-17T09:16:49.838Z,99.99
2018-08-17T09:17:49.836Z,99.99
2018-08-17T09:18:49.830Z,99.99
2018-08-17T09:19:49.829Z,99.99
2018-08-17T09:20:49.982Z,99.99
2018-08-17T09:21:49.825Z,99.99
2018-08-17T09:22:49.829Z,99.99
2018-08-17T09:23:49.826Z,99.99
2018-08-17T09:24:49.826Z,99.99
2018-08-17T09:25:49.826Z,99.99
2018-08-17T09:26:49.820Z,99.99
2018-08-17T09:27:49.817Z,99.99
2018-08-17T09:28:49.825Z,99.99
2018-08-17T09:29:49.821Z,99.99
2018-08-17T09:30:49.822Z,99.99
2018-08-17T09:31:49.813Z,99.99
2018-08-17T09:32:49.811Z,99.99
2018-08-17T09:33:49.810Z,99.99
2018-08-17T09:34:49.813Z,99.99
2018-08-17T09:35:49.812Z,99.99
2018-08-17T09:36:49.811Z,99.99
2018-08-17T09:37:49.811Z,99.99
2018-08-17T09:38:49.805Z,99.99
2018-08-17T09:39:49.803Z,99.99
2018-08-17T09:40:49.803Z,99.99
2018-08-17T09:41:49.920Z,99.99
2018-08-17T09:42:49.806Z,99.99
2018-08-17T09:43:49.805Z,99.99
2018-08-17T09:44:49.800Z,99.99
2018-08-17T09:45:49.798Z,99.99
2018-08-17T09:46:49.803Z,99.99
2018-08-17T09:47:49.802Z,99.99
2018-08-17T09:48:49.800Z,99.99
2018-08-17T09:49:49.800Z,99.99
2018-08-17T09:50:49.796Z,99.99
2018-08-17T09:51:49.794Z,99.99
2018-08-17T09:52:49.795Z,99.99
2018-08-17T09:53:49.793Z,99.99
2018-08-17T09:54:49.796Z,99.99
2018-08-17T09:55:49.795Z,99.99
2018-08-17T09:56:49.795Z,99.99
2018-08-17T09:57:49.793Z,99.99
2018-08-17T09:58:49.790Z,99.99
2018-08-17T09:59:49.788Z,99.99
2018-08-17T10:00:49.792Z,99.99
2018-08-17T10:01:49.790Z,99.99
2018-08-17T10:02:49.787Z,99.99
2018-08-17T10:03:49.815Z,99.99
2018-08-17T10:04:49.787Z,99.99
2018-08-17T10:05:49.783Z,99.99
2018-08-17T10:06:49.836Z,99.99
2018-08-17T10:07:49.787Z,99.99
2018-08-17T10:08:49.786Z,97.96
2018-08-17T10:09:49.789Z,95.10
2018-08-17T10:10:49.784Z,92.33
2018-08-17T10:11:49.784Z,89.92
2018-08-17T10:12:49.787Z,89.04
2018-08-17T10:13:49.788Z,89.13
2018-08-17T10:14:49.797Z,89.09
2018-08-17T10:15:49.885Z,88.37
2018-08-17T10:16:49.797Z,88.81
2018-08-17T10:17:49.803Z,90.16
2018-08-17T10:18:49.813Z,90.26
2018-08-17T10:19:49.814Z,91.95
2018-08-17T10:20:49.984Z,89.97
2018-08-17T10:21:50.241Z,89.37
2018-08-17T10:22:49.829Z,91.51
2018-08-17T10:23:49.827Z,91.51
2018-08-17T10:24:49.833Z,92.58
2018-08-17T10:25:49.838Z,91.02
2018-08-17T10:26:49.848Z,91.22
2018-08-17T10:27:49.851Z,90.40
2018-08-17T10:28:49.857Z,93.79
2018-08-17T10:29:49.862Z,96.50
2018-08-17T10:30:49.863Z,94.04
2018-08-17T10:31:49.865Z,91.86
2018-08-17T10:32:49.876Z,90.89
2018-08-17T10:33:49.929Z,92.20
2018-08-17T10:34:49.884Z,91.58
2018-08-17T10:35:49.884Z,90.75
2018-08-17T10:36:49.887Z,91.97
2018-08-17T10:37:49.891Z,92.41
2018-08-17T10:38:49.901Z,93.47
2018-08-17T10:39:49.904Z,94.14
2018-08-17T10:40:49.967Z,93.85
2018-08-17T10:41:49.909Z,95.30
2018-08-17T10:42:49.909Z,95.20
2018-08-17T10:43:49.915Z,95.50
2018-08-17T10:44:49.914Z,96.03
2018-08-17T10:45:49.917Z,96.17
2018-08-17T10:46:49.924Z,98.10
2018-08-17T10:47:49.928Z,99.26
2018-08-17T10:48:50.036Z,96.03
2018-08-17T10:49:49.927Z,95.06
2018-08-17T10:50:49.934Z,94.77
2018-08-17T10:51:49.937Z,93.71
2018-08-17T10:52:49.940Z,93.80
2018-08-17T10:53:49.949Z,94.09
2018-08-17T10:54:49.939Z,95.73
2018-08-17T10:55:49.946Z,93.41
2018-08-17T10:56:49.944Z,94.67
2018-08-17T10:57:49.946Z,98.00
2018-08-17T10:58:49.956Z,96.66
2018-08-17T10:59:49.954Z,95.50
2018-08-17T11:00:49.961Z,94.10
2018-08-17T11:01:49.960Z,96.61
2018-08-17T11:02:49.960Z,95.93
2018-08-17T11:03:49.958Z,95.40
2018-08-17T11:04:49.965Z,95.79
2018-08-17T11:05:49.967Z,96.17
2018-08-17T11:06:49.964Z,97.24
2018-08-17T11:07:49.965Z,97.57
2018-08-17T11:08:49.967Z,97.91
2018-08-17T11:09:49.967Z,97.28
2018-08-17T11:10:49.997Z,97.09
2018-08-17T11:11:49.974Z,97.86
2018-08-17T11:12:49.976Z,97.47
2018-08-17T11:13:49.987Z,97.86
2018-08-17T11:14:49.977Z,97.91
2018-08-17T11:15:49.975Z,97.62
2018-08-17T11:16:49.979Z,98.58
2018-08-17T11:17:49.976Z,98.58
2018-08-17T11:18:49.984Z,98.87
2018-08-17T11:19:49.981Z,98.77
2018-08-17T11:20:49.986Z,98.29
2018-08-17T11:21:49.979Z,98.00
2018-08-17T11:22:50.032Z,97.72
2018-08-17T11:23:49.983Z,96.66
2018-08-17T11:24:49.986Z,97.04
2018-08-17T11:25:49.986Z,97.72
2018-08-17T11:26:49.982Z,98.00
2018-08-17T11:27:49.982Z,98.29
2018-08-17T11:28:49.982Z,98.10
2018-08-17T11:29:49.984Z,97.62
2018-08-17T11:30:49.990Z,96.37
2018-08-17T11:31:49.988Z,94.82
2018-08-17T11:32:49.989Z,95.59
2018-08-17T11:33:49.990Z,96.66
2018-08-17T11:34:49.988Z,96.85
2018-08-17T11:35:49.985Z,97.19
2018-08-17T11:36:49.992Z,96.75
2018-08-17T11:37:49.989Z,97.09
2018-08-17T11:38:49.986Z,96.03
2018-08-17T11:39:49.990Z,95.54
2018-08-17T11:40:49.987Z,95.26
2018-08-17T11:41:49.987Z,95.16
2018-08-17T11:42:49.994Z,95.64
2018-08-17T11:43:49.994Z,94.82
2018-08-17T11:44:49.994Z,95.21
2018-08-17T11:45:49.995Z,94.15
2018-08-17T11:46:49.992Z,94.15
2018-08-17T11:47:49.990Z,92.99
2018-08-17T11:48:49.991Z,93.47
2018-08-17T11:49:49.992Z,93.08
2018-08-17T11:50:50.000Z,93.76
2018-08-17T11:51:49.999Z,92.36
2018-08-17T11:52:49.994Z,92.65
2018-08-17T11:53:50.016Z,93.80
2018-08-17T11:54:50.001Z,92.65
2018-08-17T11:55:50.000Z,92.31
2018-08-17T11:56:50.002Z,91.63
2018-08-17T11:57:50.004Z,91.87
2018-08-17T11:58:50.000Z,91.09
2018-08-17T11:59:49.999Z,90.81
2018-08-17T12:00:50.001Z,88.63
2018-08-17T12:01:50.053Z,88.53
2018-08-17T12:02:50.009Z,89.15
2018-08-17T12:03:50.009Z,88.67
2018-08-17T12:04:50.009Z,88.19
2018-08-17T12:05:50.018Z,88.53
2018-08-17T12:06:50.009Z,87.46
2018-08-17T12:07:50.011Z,85.72
2018-08-17T12:08:50.017Z,84.75
2018-08-17T12:09:50.019Z,86.20
2018-08-17T12:10:50.017Z,85.52
2018-08-17T12:11:50.019Z,85.18
2018-08-17T12:12:50.021Z,84.41
2018-08-17T12:13:50.023Z,85.03
2018-08-17T12:14:50.031Z,82.86
2018-08-17T12:15:50.032Z,82.18
2018-08-17T12:16:50.034Z,82.76
2018-08-17T12:17:50.037Z,82.43
2018-08-17T12:18:50.055Z,82.33
2018-08-17T12:19:50.038Z,83.20
2018-08-17T12:20:50.040Z,84.11
2018-08-17T12:21:50.042Z,83.96
2018-08-17T12:22:50.051Z,84.35
2018-08-17T12:23:50.053Z,82.18
2018-08-17T12:24:50.227Z,83.05
2018-08-17T12:25:50.053Z,81.89
2018-08-17T12:26:50.061Z,82.08
2018-08-17T12:27:50.063Z,82.22
2018-08-17T12:28:50.070Z,84.16
2018-08-17T12:29:50.069Z,83.86
2018-08-17T12:30:50.068Z,85.55
2018-08-17T12:31:50.070Z,82.22
2018-08-17T12:32:50.082Z,81.35
2018-08-17T12:33:50.078Z,84.25
2018-08-17T12:34:50.084Z,83.58
2018-08-17T12:35:50.087Z,83.58
2018-08-17T12:36:50.090Z,81.35
2018-08-17T12:37:50.094Z,80.19
2018-08-17T12:38:50.091Z,81.35
2018-08-17T12:39:50.093Z,82.07
2018-08-17T12:40:50.102Z,81.58
2018-08-17T12:41:50.105Z,79.97
2018-08-17T12:42:50.104Z,77.22
2018-08-17T12:43:50.105Z,77.37
2018-08-17T12:44:50.109Z,77.19
2018-08-17T12:45:50.112Z,78.34
2018-08-17T12:46:50.120Z,79.12
2018-08-17T12:47:50.122Z,78.38
2018-08-17T12:48:50.125Z,78.05
2018-08-17T12:49:50.128Z,79.55
2018-08-17T12:50:50.127Z,79.93
2018-08-17T12:51:50.132Z,80.22
2018-08-17T12:52:50.134Z,80.42